Time;durP1;ratioP1;P1;durP2;ratioP2;P2;SDS_P1;SDS_P2;PMS_P1;PMS_P2;Temp;Humidity;BMP_temperature;BMP_pressure;BME280_temperature;BME280_humidity;BME280_pressure;Samples;Min_cycle;Max_cycle;Signal;HPM_P1;HPM_P2
2023/05/22 00:00:30;;;;;;;;;;;;;;;24.88;35.78;101273.16;4131916;28;19928;-74
2023/05/22 00:02:37;;;;;;;;;;;;;;;24.90;35.99;101275.75;4132287;28;19922;-74
2023/05/22 00:04:39;;;;;;;;;;;;;;;24.89;35.96;101263.28;4132056;28;19928;-75
2023/05/22 00:06:41;;;;;;;;;;;;;;;24.87;35.98;101260.72;4114031;28;20362;-75
2023/05/22 00:08:43;;;;;;;;;;;;;;;24.89;35.77;101260.59;4131693;28;20315;-75
2023/05/22 00:10:45;;;;;;;;;;;;;;;24.91;36.01;101257.75;4131568;28;19921;-75
2023/05/22 00:12:46;;;;;;;;;;;;;;;24.92;35.82;101251.38;4131709;28;19921;-75
2023/05/22 00:14:48;;;;;;;;;;;;;;;24.91;35.84;101249.69;4131863;28;19959;-75
2023/05/22 00:16:49;;;;;;;;;;;;;;;24.89;35.61;101255.19;4130992;28;20409;-75
2023/05/22 00:18:51;;;;;;;;;;;;;;;24.90;35.85;101256.91;4130288;28;20297;-75
2023/05/22 00:20:53;;;;;;;;;;;;;;;24.91;35.82;101261.31;4131659;28;19926;-74
2023/05/22 00:22:55;;;;;;;;;;;;;;;24.89;35.66;101260.59;4131732;28;19926;-74
2023/05/22 00:24:57;;;;;;;;;;;;;;;24.88;35.90;101259.72;4131129;28;19996;-74
2023/05/22 00:26:58;;;;;;;;;;;;;;;24.85;35.91;101254.63;4130775;28;20117;-74
2023/05/22 00:29:00;;;;;;;;;;;;;;;24.87;35.50;101243.72;4131410;28;19925;-74
2023/05/22 00:31:02;;;;;;;;;;;;;;;24.88;35.82;101253.50;4131616;28;19922;-74
2023/05/22 00:33:04;;;;;;;;;;;;;;;24.90;35.71;101256.03;4131516;28;20336;-74
2023/05/22 00:35:05;;;;;;;;;;;;;;;24.88;35.80;101259.72;4131629;28;20012;-73
2023/05/22 00:37:07;;;;;;;;;;;;;;;24.88;35.63;101250.81;4130567;28;19976;-72
2023/05/22 00:39:09;;;;;;;;;;;;;;;24.86;35.72;101253.63;4131395;28;20016;-73
2023/05/22 00:41:10;;;;;;;;;;;;;;;24.87;35.74;101258.03;4131303;28;20020;-72
2023/05/22 00:43:12;;;;;;;;;;;;;;;24.89;35.63;101252.50;4131260;28;19922;-73
2023/05/22 00:45:13;;;;;;;;;;;;;;;24.90;35.67;101258.72;4131313;28;20039;-72
2023/05/22 00:47:15;;;;;;;;;;;;;;;24.88;35.64;101256.19;4130541;28;20124;-72
2023/05/22 00:49:16;;;;;;;;;;;;;;;24.89;35.63;101255.19;4131196;28;19947;-73
2023/05/22 00:51:21;;;;;;;;;;;;;;;24.90;35.49;101256.91;4130142;28;20329;-72
2023/05/22 00:53:23;;;;;;;;;;;;;;;24.91;35.32;101264.00;4131158;28;19960;-72
2023/05/22 00:55:25;;;;;;;;;;;;;;;24.88;35.32;101251.63;4130684;28;19921;-72
2023/05/22 00:57:27;;;;;;;;;;;;;;;24.90;35.49;101261.41;4112984;28;19922;-73
2023/05/22 00:59:28;;;;;;;;;;;;;;;24.88;35.74;101257.03;4131153;28;20426;-73
2023/05/22 01:01:32;;;;;;;;;;;;;;;24.90;35.50;101254.22;4131222;28;20403;-72
2023/05/22 01:03:46;;;;;;;;;;;;;;;24.90;35.53;101243.47;4131076;28;19930;-72
2023/05/22 01:05:48;;;;;;;;;;;;;;;24.88;35.56;101242.72;4131157;28;19926;-73
2023/05/22 01:07:50;;;;;;;;;;;;;;;24.89;35.48;101239.06;4129951;28;20375;-72
2023/05/22 01:09:52;;;;;;;;;;;;;;;24.88;35.33;101243.56;4130761;28;19964;-72
2023/05/22 01:12:05;;;;;;;;;;;;;;;24.83;35.53;101243.13;4130524;28;20295;-73
2023/05/22 01:14:09;;;;;;;;;;;;;;;24.77;35.10;101232.91;4131074;28;19928;-72
2023/05/22 01:16:17;;;;;;;;;;;;;;;24.82;35.48;101232.50;4131482;28;20338;-72
2023/05/22 01:18:28;;;;;;;;;;;;;;;24.81;35.38;101244.25;4129886;28;19953;-72
2023/05/22 01:20:47;;;;;;;;;;;;;;;24.85;35.21;101237.63;4130995;28;19922;-72
2023/05/22 01:23:04;;;;;;;;;;;;;;;24.85;35.21;101235.78;4130906;28;19922;-73
2023/05/22 01:25:27;;;;;;;;;;;;;;;24.87;35.29;101235.66;4130759;28;19922;-72
2023/05/22 01:27:33;;;;;;;;;;;;;;;24.86;34.96;101236.63;4097935;29;19962;-72
2023/05/22 01:29:41;;;;;;;;;;;;;;;24.85;34.96;101230.41;4099035;29;20065;-72
2023/05/22 01:31:44;;;;;;;;;;;;;;;24.87;35.22;101238.34;4099004;29;20396;-72
2023/05/22 01:33:47;;;;;;;;;;;;;;;24.86;35.26;101239.31;4106492;28;19928;-73
2023/05/22 01:35:52;;;;;;;;;;;;;;;24.79;35.15;101224.69;4131021;28;19922;-73
2023/05/22 01:37:55;;;;;;;;;;;;;;;24.84;34.78;101230.56;4129471;28;19968;-73
2023/05/22 01:39:57;;;;;;;;;;;;;;;24.83;35.08;101234.22;4130788;28;20016;-73
2023/05/22 01:41:59;;;;;;;;;;;;;;;24.73;35.08;101215.34;4130720;28;19947;-74
2023/05/22 01:44:01;;;;;;;;;;;;;;;24.81;35.00;101230.81;4130745;28;19921;-75
2023/05/22 01:46:03;;;;;;;;;;;;;;;24.81;35.12;101233.50;4130941;28;20406;-72
2023/05/22 01:48:05;;;;;;;;;;;;;;;24.80;34.76;101229.97;4129842;28;19922;-74
2023/05/22 01:50:07;;;;;;;;;;;;;;;24.80;35.08;101237.16;4130988;28;19932;-75
2023/05/22 01:52:11;;;;;;;;;;;;;;;24.77;35.07;101246.38;4130942;28;19945;-74
2023/05/22 01:54:29;;;;;;;;;;;;;;;24.73;35.36;101236.88;4113778;28;19930;-74
2023/05/22 01:56:40;;;;;;;;;;;;;;;24.76;35.08;101241.97;4131306;28;20405;-73
2023/05/22 01:58:57;;;;;;;;;;;;;;;24.78;35.09;101241.84;4128918;28;20135;-74
2023/05/22 02:01:02;;;;;;;;;;;;;;;24.79;34.87;101248.91;4130896;28;19922;-73
2023/05/22 02:03:06;;;;;;;;;;;;;;;24.79;34.85;101244.41;4130564;28;19945;-74
2023/05/22 02:05:10;;;;;;;;;;;;;;;24.80;34.74;101247.94;4130591;28;19922;-74
2023/05/22 02:07:13;;;;;;;;;;;;;;;24.79;34.75;101240.84;4129494;28;20493;-74
2023/05/22 02:09:15;;;;;;;;;;;;;;;24.77;35.01;101238.28;4130591;28;20393;-73
2023/05/22 02:11:18;;;;;;;;;;;;;;;24.78;34.85;101240.00;4130773;28;20008;-73
2023/05/22 02:13:21;;;;;;;;;;;;;;;24.78;34.76;101244.53;4130800;28;19928;-73
2023/05/22 02:15:22;;;;;;;;;;;;;;;24.77;34.70;101242.84;4130626;28;19964;-73
2023/05/22 02:17:24;;;;;;;;;;;;;;;24.72;34.89;101235.16;4129587;28;19948;-74
2023/05/22 02:19:26;;;;;;;;;;;;;;;24.76;34.68;101238.44;4130533;28;19929;-73
2023/05/22 02:21:28;;;;;;;;;;;;;;;24.76;34.77;101236.59;4130442;28;20005;-73
2023/05/22 02:23:30;;;;;;;;;;;;;;;24.77;34.89;101237.47;4133108;28;19925;-73
2023/05/22 02:25:31;;;;;;;;;;;;;;;24.77;34.59;101242.84;4133497;28;19932;-73
2023/05/22 02:27:33;;;;;;;;;;;;;;;24.76;34.88;101241.13;4132587;28;20012;-73
2023/05/22 02:29:34;;;;;;;;;;;;;;;24.72;34.81;101241.38;4133312;28;19952;-74
2023/05/22 02:31:36;;;;;;;;;;;;;;;24.73;34.88;101236.88;4133549;28;20315;-74
2023/05/22 02:33:38;;;;;;;;;;;;;;;24.74;34.65;101237.72;4133209;28;20312;-73
2023/05/22 02:35:39;;;;;;;;;;;;;;;24.70;34.83;101237.13;4133099;28;20446;-73
2023/05/22 02:37:41;;;;;;;;;;;;;;;24.72;34.49;101236.00;4132574;28;19976;-74
2023/05/22 02:39:43;;;;;;;;;;;;;;;24.74;34.77;101232.34;4133179;28;19921;-74
2023/05/22 02:41:44;;;;;;;;;;;;;;;24.74;34.79;101229.63;4133075;28;19996;-73
2023/05/22 02:43:46;;;;;;;;;;;;;;;24.72;34.73;101237.84;4132977;28;19922;-74
2023/05/22 02:45:47;;;;;;;;;;;;;;;24.70;34.71;101232.63;4133083;28;19922;-73
2023/05/22 02:47:49;;;;;;;;;;;;;;;24.72;34.47;101232.47;4132059;28;19922;-73
2023/05/22 02:49:50;;;;;;;;;;;;;;;24.74;34.57;101229.63;4133179;28;19928;-74
2023/05/22 02:51:52;;;;;;;;;;;;;;;24.72;34.76;101227.09;4132961;28;19991;-74
2023/05/22 02:53:53;;;;;;;;;;;;;;;24.72;34.67;101219.88;4133135;28;19980;-74
2023/05/22 02:55:57;;;;;;;;;;;;;;;24.73;34.66;101220.72;4133158;28;19949;-74
2023/05/22 02:57:59;;;;;;;;;;;;;;;24.71;34.36;101230.78;4131997;28;19921;-74
2023/05/22 03:00:00;;;;;;;;;;;;;;;24.72;34.42;101230.63;4133028;28;19922;-74
2023/05/22 03:02:02;;;;;;;;;;;;;;;24.71;34.65;101225.38;4133015;28;19937;-74
2023/05/22 03:04:05;;;;;;;;;;;;;;;24.70;34.67;101231.75;4132850;28;19932;-74
2023/05/22 03:06:07;;;;;;;;;;;;;;;24.70;34.41;101231.75;4132349;28;20004;-74
2023/05/22 03:08:09;;;;;;;;;;;;;;;24.71;34.46;101231.59;4114352;28;20446;-74
2023/05/22 03:10:11;;;;;;;;;;;;;;;24.69;34.62;101238.97;4132938;28;19926;-72
2023/05/22 03:12:12;;;;;;;;;;;;;;;24.69;34.59;101236.28;4132665;28;19928;-73
2023/05/22 03:14:14;;;;;;;;;;;;;;;24.70;34.65;101240.69;4132733;28;20012;-74
2023/05/22 03:16:15;;;;;;;;;;;;;;;24.70;34.26;101237.13;4132632;28;20298;-74
2023/05/22 03:18:17;;;;;;;;;;;;;;;24.68;34.25;101237.28;4131618;28;19929;-74
2023/05/22 03:20:19;;;;;;;;;;;;;;;24.68;34.50;101242.66;4132408;28;19928;-74
2023/05/22 03:22:21;;;;;;;;;;;;;;;24.69;34.34;101243.50;4132495;28;19921;-73
2023/05/22 03:24:23;;;;;;;;;;;;;;;24.68;34.49;101239.97;4132299;28;20384;-73
2023/05/22 03:26:27;;;;;;;;;;;;;;;24.68;34.58;101239.09;4132351;28;19932;-74
2023/05/22 03:28:28;;;;;;;;;;;;;;;24.68;34.43;101231.03;4131561;28;19921;-73
2023/05/22 03:30:33;;;;;;;;;;;;;;;24.66;34.54;101233.84;4132643;28;19957;-73
2023/05/22 03:32:36;;;;;;;;;;;;;;;24.67;34.53;101237.41;4132217;28;19953;-73
2023/05/22 03:34:38;;;;;;;;;;;;;;;24.66;34.37;101233.00;4131301;28;20284;-74
2023/05/22 03:36:40;;;;;;;;;;;;;;;24.66;34.38;101225.78;4115220;28;19984;-74
2023/05/22 03:38:41;;;;;;;;;;;;;;;24.67;34.39;101232.88;4131341;28;19921;-74
2023/05/22 03:40:43;;;;;;;;;;;;;;;24.66;34.35;101233.84;4132455;28;19928;-73
2023/05/22 03:42:44;;;;;;;;;;;;;;;24.66;34.44;101233.84;4132379;28;19949;-73
2023/05/22 03:44:46;;;;;;;;;;;;;;;24.66;34.60;101235.72;4131959;28;19928;-73
2023/05/22 03:46:47;;;;;;;;;;;;;;;24.65;34.55;101228.59;4132144;28;19922;-73
2023/05/22 03:48:49;;;;;;;;;;;;;;;24.64;34.52;101225.06;4131064;28;19928;-73
2023/05/22 03:50:50;;;;;;;;;;;;;;;24.63;34.12;101220.66;4131224;28;19969;-74
2023/05/22 03:52:52;;;;;;;;;;;;;;;24.63;34.19;101227.84;4132360;28;20277;-74
2023/05/22 03:54:54;;;;;;;;;;;;;;;24.63;34.47;101233.25;4130867;28;19928;-74
2023/05/22 03:56:55;;;;;;;;;;;;;;;24.62;34.46;101218.94;4132095;28;20356;-74
2023/05/22 03:58:57;;;;;;;;;;;;;;;24.61;34.46;101228.00;4113599;28;19986;-74
2023/05/22 04:00:59;;;;;;;;;;;;;;;24.60;34.46;101226.28;4132097;28;19926;-74
2023/05/22 04:03:02;;;;;;;;;;;;;;;24.60;34.29;101228.97;4131337;28;19976;-74
2023/05/22 04:05:08;;;;;;;;;;;;;;;24.58;34.75;101240.88;4132014;28;19961;-74
2023/05/22 04:07:11;;;;;;;;;;;;;;;24.56;34.66;101235.63;4131717;28;19968;-73
2023/05/22 04:09:13;;;;;;;;;;;;;;;24.54;34.71;101238.44;4129540;28;19928;-74
2023/05/22 04:11:15;;;;;;;;;;;;;;;24.56;34.29;101241.00;4131936;28;19987;-74
2023/05/22 04:13:17;;;;;;;;;;;;;;;24.58;34.45;101247.09;4131656;28;19925;-74
2023/05/22 04:15:18;;;;;;;;;;;;;;;24.59;34.36;101250.63;4131696;28;19967;-74
2023/05/22 04:17:20;;;;;;;;;;;;;;;24.59;34.57;101251.47;4131425;28;20044;-74
2023/05/22 04:19:21;;;;;;;;;;;;;;;24.59;34.68;101251.47;4130528;28;19952;-74
2023/05/22 04:21:23;;;;;;;;;;;;;;;24.59;34.24;101246.09;4130392;28;19922;-74
2023/05/22 04:23:25;;;;;;;;;;;;;;;24.55;34.55;101248.19;4114049;28;19940;-72
2023/05/22 04:25:26;;;;;;;;;;;;;;;24.54;34.61;101251.03;4131661;28;20302;-74
2023/05/22 04:27:28;;;;;;;;;;;;;;;24.55;34.41;101256.28;4099325;29;19922;-74
2023/05/22 04:29:30;;;;;;;;;;;;;;;24.56;34.58;101251.75;4099042;29;19923;-74
2023/05/22 04:31:32;;;;;;;;;;;;;;;24.56;34.33;101249.06;4099060;29;19926;-74
2023/05/22 04:33:33;;;;;;;;;;;;;;;24.55;34.45;101250.88;4103677;28;19953;-74
2023/05/22 04:35:35;;;;;;;;;;;;;;;24.55;34.51;101253.59;4131338;28;19984;-74
2023/05/22 04:37:37;;;;;;;;;;;;;;;24.56;34.51;101249.91;4130572;28;19922;-75
2023/05/22 04:39:39;;;;;;;;;;;;;;;24.58;34.53;101255.16;4131005;28;20383;-74
2023/05/22 04:41:40;;;;;;;;;;;;;;;24.56;34.70;101257.97;4131413;28;19922;-74
2023/05/22 04:43:42;;;;;;;;;;;;;;;24.57;34.35;101256.16;4131183;28;19921;-74
2023/05/22 04:45:45;;;;;;;;;;;;;;;24.58;34.64;101259.69;4113881;28;20357;-75
2023/05/22 04:47:46;;;;;;;;;;;;;;;24.58;34.28;101265.91;4130258;28;19984;-74
2023/05/22 04:49:48;;;;;;;;;;;;;;;24.58;34.38;101263.22;4131019;28;19925;-74
2023/05/22 04:51:50;;;;;;;;;;;;;;;24.58;34.38;101273.13;4131336;28;20417;-74
2023/05/22 04:53:51;;;;;;;;;;;;;;;24.56;34.59;101262.53;4131420;28;19944;-74
2023/05/22 04:55:53;;;;;;;;;;;;;;;24.56;34.67;101263.34;4131201;28;20016;-74
2023/05/22 04:57:55;;;;;;;;;;;;;;;24.56;34.35;101270.59;4130500;28;20209;-74
2023/05/22 04:59:56;;;;;;;;;;;;;;;24.55;34.68;101266.19;4131121;28;19987;-74
2023/05/22 05:01:58;;;;;;;;;;;;;;;24.55;34.53;101272.41;4130745;28;19922;-74
2023/05/22 05:04:00;;;;;;;;;;;;;;;24.55;34.79;101276.94;4131296;28;19922;-74
2023/05/22 05:06:02;;;;;;;;;;;;;;;24.55;34.48;101282.31;4131050;28;20020;-74
2023/05/22 05:08:04;;;;;;;;;;;;;;;24.55;34.64;101271.56;4130133;28;19976;-74
2023/05/22 05:10:06;;;;;;;;;;;;;;;24.55;34.64;101276.94;4130803;28;19932;-74
2023/05/22 05:12:08;;;;;;;;;;;;;;;24.54;34.29;101272.53;4131144;28;20346;-74
2023/05/22 05:14:09;;;;;;;;;;;;;;;24.54;34.53;101272.53;4131171;28;19957;-73
2023/05/22 05:16:11;;;;;;;;;;;;;;;24.52;34.77;101271.81;4130798;28;19944;-73
2023/05/22 05:18:12;;;;;;;;;;;;;;;24.52;34.74;101277.19;4130161;28;20008;-73
2023/05/22 05:20:14;;;;;;;;;;;;;;;24.51;34.74;101275.50;4130776;28;19925;-73
2023/05/22 05:22:16;;;;;;;;;;;;;;;24.53;34.60;101270.84;4131037;28;20016;-73
2023/05/22 05:24:17;;;;;;;;;;;;;;;24.53;34.67;101276.22;4130790;28;20411;-73
2023/05/22 05:26:20;;;;;;;;;;;;;;;24.49;34.82;101267.56;4130608;28;19922;-73
2023/05/22 05:28:22;;;;;;;;;;;;;;;24.51;34.71;101268.28;4130074;28;19925;-74
2023/05/22 05:30:23;;;;;;;;;;;;;;;24.52;34.55;101263.75;4113257;28;20418;-74
2023/05/22 05:32:25;;;;;;;;;;;;;;;24.49;34.73;101264.03;4113629;28;19953;-74
2023/05/22 05:34:27;;;;;;;;;;;;;;;24.48;34.71;101265.00;4130838;28;19998;-73
2023/05/22 05:36:29;;;;;;;;;;;;;;;24.48;34.50;101267.69;4131154;28;19988;-74
2023/05/22 05:38:30;;;;;;;;;;;;;;;24.46;34.47;101261.59;4129794;28;19921;-73
2023/05/22 05:40:32;;;;;;;;;;;;;;;24.45;34.67;101260.75;4130928;28;20406;-74
2023/05/22 05:42:33;;;;;;;;;;;;;;;24.42;34.60;101260.16;4130935;28;19921;-74
2023/05/22 05:44:35;;;;;;;;;;;;;;;24.44;34.79;101258.22;4130521;28;19941;-74
2023/05/22 05:46:36;;;;;;;;;;;;;;;24.42;34.93;101254.78;4130663;28;20110;-74
2023/05/22 05:48:38;;;;;;;;;;;;;;;24.40;34.96;101263.84;4129650;28;19921;-74
2023/05/22 05:50:40;;;;;;;;;;;;;;;24.43;34.71;101257.34;4130996;28;20007;-74
2023/05/22 05:52:41;;;;;;;;;;;;;;;24.42;34.60;101262.84;4130914;28;19929;-73
2023/05/22 05:54:46;;;;;;;;;;;;;;;24.41;34.89;101264.66;4130915;28;20008;-74
2023/05/22 05:56:47;;;;;;;;;;;;;;;24.38;34.90;101270.34;4130962;28;19928;-73
2023/05/22 05:58:49;;;;;;;;;;;;;;;24.37;34.99;101264.09;4132236;28;20020;-74
2023/05/22 06:00:50;;;;;;;;;;;;;;;24.40;34.83;101261.16;4133951;28;19967;-74
2023/05/22 06:02:52;;;;;;;;;;;;;;;24.40;34.96;101253.09;4133830;28;19941;-73
2023/05/22 06:04:54;;;;;;;;;;;;;;;24.39;34.74;101258.59;4133850;28;19921;-74
2023/05/22 06:06:56;;;;;;;;;;;;;;;24.38;34.68;101249.66;4133580;28;19926;-73
2023/05/22 06:08:57;;;;;;;;;;;;;;;24.37;34.98;101256.03;4132365;28;19922;-73
2023/05/22 06:10:59;;;;;;;;;;;;;;;24.38;35.08;101260.41;4133737;28;19921;-73
2023/05/22 06:13:01;;;;;;;;;;;;;;;24.35;34.73;101254.44;4133471;28;19969;-73
2023/05/22 06:15:04;;;;;;;;;;;;;;;24.34;34.75;101258.13;4132293;28;19957;-71
2023/05/22 06:17:07;;;;;;;;;;;;;;;24.35;35.00;101254.44;4133426;28;19926;-72
2023/05/22 06:19:09;;;;;;;;;;;;;;;24.36;35.21;101261.53;4132288;28;19926;-72
2023/05/22 06:21:11;;;;;;;;;;;;;;;24.34;35.00;101259.00;4133271;28;19921;-73
2023/05/22 06:23:13;;;;;;;;;;;;;;;24.36;35.10;101261.53;4133321;28;20476;-72
2023/05/22 06:25:14;;;;;;;;;;;;;;;24.37;35.26;101257.88;4133283;28;20288;-73
2023/05/22 06:27:16;;;;;;;;;;;;;;;24.38;35.04;101268.47;4133235;28;20032;-72
2023/05/22 06:29:17;;;;;;;;;;;;;;;24.38;35.05;101276.53;4132065;28;19922;-72
2023/05/22 06:31:20;;;;;;;;;;;;;;;24.39;35.07;101275.56;4133831;28;20351;-73
2023/05/22 06:33:22;;;;;;;;;;;;;;;24.38;34.90;101263.09;4133856;28;20445;-73
2023/05/22 06:35:24;;;;;;;;;;;;;;;24.37;35.13;101274.84;4133774;28;19928;-72
2023/05/22 06:37:25;;;;;;;;;;;;;;;24.38;35.08;101275.72;4133848;28;20016;-73
2023/05/22 06:39:27;;;;;;;;;;;;;;;24.40;35.00;101279.13;4132553;28;19921;-74
2023/05/22 06:41:32;;;;;;;;;;;;;;;24.39;35.02;101283.63;4133474;28;19921;-73
2023/05/22 06:43:34;;;;;;;;;;;;;;;24.38;35.04;101278.41;4132996;28;19925;-73
2023/05/22 06:45:37;;;;;;;;;;;;;;;24.37;34.92;101279.38;4133426;28;19926;-72
2023/05/22 06:47:38;;;;;;;;;;;;;;;24.40;35.30;101281.81;4132180;28;19965;-72
2023/05/22 06:49:40;;;;;;;;;;;;;;;24.38;35.34;101278.41;4132675;28;19949;-72
2023/05/22 06:51:42;;;;;;;;;;;;;;;24.39;35.03;101282.78;4132506;28;19928;-72
2023/05/22 06:53:43;;;;;;;;;;;;;;;24.41;35.32;101288.88;4133419;28;19926;-72
2023/05/22 06:55:45;;;;;;;;;;;;;;;24.43;34.94;101294.13;4133467;28;19972;-72
2023/05/22 06:57:46;;;;;;;;;;;;;;;24.43;35.20;101294.13;4132966;28;19931;-72
2023/05/22 06:59:48;;;;;;;;;;;;;;;24.42;35.24;101287.06;4132225;28;19922;-72
2023/05/22 07:01:50;;;;;;;;;;;;;;;24.44;35.17;101290.47;4133601;28;20279;-72
2023/05/22 07:03:56;;;;;;;;;;;;;;;24.44;35.32;101293.16;4133073;28;19921;-73
2023/05/22 07:05:58;;;;;;;;;;;;;;;24.40;35.43;101285.34;4133080;28;20020;-73
2023/05/22 07:08:00;;;;;;;;;;;;;;;24.41;35.27;101286.19;4132648;28;19922;-73
2023/05/22 07:10:02;;;;;;;;;;;;;;;24.44;35.43;101288.63;4131738;28;19961;-73
2023/05/22 07:12:04;;;;;;;;;;;;;;;24.46;35.12;101296.53;4132543;28;20339;-73
2023/05/22 07:14:06;;;;;;;;;;;;;;;24.44;35.42;101287.78;4132638;28;19980;-73
2023/05/22 07:16:08;;;;;;;;;;;;;;;24.44;35.44;101298.53;4132803;28;19921;-72
2023/05/22 07:18:14;;;;;;;;;;;;;;;24.42;35.45;101295.97;4131905;28;19932;-73
2023/05/22 07:20:16;;;;;;;;;;;;;;;24.43;35.41;101292.28;4132390;28;19925;-73
2023/05/22 07:22:18;;;;;;;;;;;;;;;24.45;35.31;101297.53;4132919;28;19953;-73
2023/05/22 07:24:19;;;;;;;;;;;;;;;24.45;35.56;101300.22;4132640;28;20012;-73
2023/05/22 07:26:21;;;;;;;;;;;;;;;24.44;35.55;101302.06;4132330;28;19921;-73
2023/05/22 07:28:23;;;;;;;;;;;;;;;24.40;35.52;101300.63;4131669;28;19945;-73
2023/05/22 07:30:24;;;;;;;;;;;;;;;24.41;35.34;101302.31;4132224;28;19925;-73
2023/05/22 07:32:26;;;;;;;;;;;;;;;24.38;35.80;101299.91;4132535;28;20020;-73
2023/05/22 07:34:31;;;;;;;;;;;;;;;24.43;35.39;101308.41;4132158;28;19949;-73
2023/05/22 07:36:33;;;;;;;;;;;;;;;24.41;35.78;101310.38;4132324;28;19976;-74
2023/05/22 07:38:35;;;;;;;;;;;;;;;24.44;35.63;101312.81;4131629;28;20041;-73
2023/05/22 07:40:36;;;;;;;;;;;;;;;24.44;35.49;101320.88;4131826;28;20013;-73
2023/05/22 07:42:38;;;;;;;;;;;;;;;24.45;35.71;101313.66;4132492;28;19921;-73
2023/05/22 07:44:40;;;;;;;;;;;;;;;24.45;35.73;101322.59;4114963;28;19928;-73
2023/05/22 07:46:42;;;;;;;;;;;;;;;24.44;35.80;101315.50;4132314;28;19971;-74
2023/05/22 07:48:43;;;;;;;;;;;;;;;24.43;35.87;101316.50;4131154;28;19925;-73
2023/05/22 07:50:45;;;;;;;;;;;;;;;24.45;35.73;101316.34;4132249;28;19984;-73
2023/05/22 07:52:46;;;;;;;;;;;;;;;24.48;35.65;101316.09;4114820;28;20006;-74
2023/05/22 07:54:48;;;;;;;;;;;;;;;24.49;35.87;101323.19;4131690;28;19922;-74
2023/05/22 07:56:50;;;;;;;;;;;;;;;24.50;35.65;101327.59;4132188;28;20036;-73
2023/05/22 07:58:52;;;;;;;;;;;;;;;24.51;35.87;101316.69;4131093;28;20326;-73
2023/05/22 08:00:54;;;;;;;;;;;;;;;24.53;35.92;101324.63;4132173;28;19926;-73
2023/05/22 08:02:56;;;;;;;;;;;;;;;24.54;35.83;101324.47;4132019;28;19926;-74
2023/05/22 08:04:58;;;;;;;;;;;;;;;24.56;36.03;101322.53;4132435;28;19921;-73
2023/05/22 08:07:00;;;;;;;;;;;;;;;24.56;35.92;101322.53;4131841;28;19928;-73
2023/05/22 08:09:03;;;;;;;;;;;;;;;24.56;35.69;101317.13;4130626;28;19991;-73
2023/05/22 08:11:05;;;;;;;;;;;;;;;24.58;35.73;101313.47;4131786;28;19922;-73
2023/05/22 08:13:07;;;;;;;;;;;;;;;24.60;35.90;101316.88;4131898;28;19933;-73
2023/05/22 08:15:09;;;;;;;;;;;;;;;24.60;35.75;101312.34;4130874;28;19921;-72
2023/05/22 08:17:11;;;;;;;;;;;;;;;24.63;36.03;101319.31;4132114;28;19930;-73
2023/05/22 08:19:13;;;;;;;;;;;;;;;24.60;36.01;101323.13;4130751;28;19969;-72
2023/05/22 08:21:15;;;;;;;;;;;;;;;24.62;36.22;101328.34;4114205;28;19929;-73
2023/05/22 08:23:18;;;;;;;;;;;;;;;24.60;36.15;101324.97;4131783;28;19947;-73
2023/05/22 08:25:20;;;;;;;;;;;;;;;24.59;36.22;101328.63;4131088;28;19921;-74
2023/05/22 08:27:21;;;;;;;;;;;;;;;24.62;36.14;101323.84;4131306;28;20344;-73
2023/05/22 08:29:23;;;;;;;;;;;;;;;24.62;36.25;101321.16;4130593;28;20447;-72
2023/05/22 08:31:26;;;;;;;;;;;;;;;24.63;36.31;101327.38;4131852;28;19926;-73
2023/05/22 08:33:28;;;;;;;;;;;;;;;24.63;36.09;101322.88;4131448;28;19922;-74
2023/05/22 08:35:30;;;;;;;;;;;;;;;24.63;35.98;101330.06;4131373;28;20104;-73
2023/05/22 08:37:31;;;;;;;;;;;;;;;24.66;36.07;101329.84;4114319;28;19949;-72
2023/05/22 08:39:33;;;;;;;;;;;;;;;24.65;36.25;101326.25;4129824;28;19930;-73
2023/05/22 08:41:34;;;;;;;;;;;;;;;24.66;36.25;101328.00;4131423;28;19922;-72
2023/05/22 08:43:36;;;;;;;;;;;;;;;24.67;36.20;101334.25;4131275;28;20016;-72
2023/05/22 08:45:41;;;;;;;;;;;;;;;24.65;36.43;101330.78;4131280;28;19991;-73
2023/05/22 08:47:43;;;;;;;;;;;;;;;24.66;36.29;101333.38;4131481;28;20001;-74
2023/05/22 08:49:49;;;;;;;;;;;;;;;24.68;36.29;101322.47;4130172;28;20016;-72
2023/05/22 08:51:56;;;;;;;;;;;;;;;24.69;35.97;101327.75;4131287;28;19922;-73
2023/05/22 08:53:59;;;;;;;;;;;;;;;24.68;36.38;101330.53;4131278;28;19964;-74
2023/05/22 08:56:02;;;;;;;;;;;;;;;24.70;36.45;101336.66;4131571;28;20016;-74
2023/05/22 08:58:04;;;;;;;;;;;;;;;24.64;36.60;101318.31;4131537;28;19922;-74
2023/05/22 09:00:06;;;;;;;;;;;;;;;24.69;36.54;101327.75;4130641;28;20020;-74
2023/05/22 09:02:08;;;;;;;;;;;;;;;24.70;36.64;101329.44;4114452;28;19922;-73
2023/05/22 09:04:10;;;;;;;;;;;;;;;24.72;36.44;101335.53;4114031;28;19964;-74
2023/05/22 09:06:12;;;;;;;;;;;;;;;24.76;36.52;101337.97;4131278;28;19987;-73
2023/05/22 09:08:14;;;;;;;;;;;;;;;24.78;36.31;101342.22;4130717;28;19928;-73
2023/05/22 09:10:21;;;;;;;;;;;;;;;24.79;36.42;101333.19;4129956;28;19921;-73
2023/05/22 09:12:24;;;;;;;;;;;;;;;24.80;36.01;101345.66;4131291;28;19961;-73
2023/05/22 09:14:25;;;;;;;;;;;;;;;24.80;36.25;101344.78;4131226;28;20248;-73
2023/05/22 09:16:27;;;;;;;;;;;;;;;24.77;36.22;101343.22;4131186;28;19926;-73
2023/05/22 09:18:29;;;;;;;;;;;;;;;24.79;36.66;101337.69;4130547;28;19960;-75
2023/05/22 09:20:37;;;;;;;;;;;;;;;24.80;36.74;101340.25;4130900;28;20379;-74
2023/05/22 09:22:39;;;;;;;;;;;;;;;24.83;36.62;101339.16;4130783;28;19922;-74
2023/05/22 09:24:42;;;;;;;;;;;;;;;24.82;36.73;101340.13;4130666;28;19922;-74
2023/05/22 09:26:43;;;;;;;;;;;;;;;24.83;36.75;101339.97;4130952;28;20009;-74
2023/05/22 09:28:46;;;;;;;;;;;;;;;24.86;36.65;101350.50;4129895;28;19945;-74
2023/05/22 09:30:51;;;;;;;;;;;;;;;24.85;36.80;101345.25;4131056;28;19932;-73
2023/05/22 09:32:53;;;;;;;;;;;;;;;24.86;36.55;101347.81;4133446;28;19932;-74
2023/05/22 09:35:01;;;;;;;;;;;;;;;24.87;36.66;101345.94;4134603;28;19922;-74
2023/05/22 09:37:02;;;;;;;;;;;;;;;24.89;36.86;101349.38;4134162;28;19972;-73
2023/05/22 09:39:04;;;;;;;;;;;;;;;24.92;36.50;101342.88;4133782;28;20367;-73
2023/05/22 09:41:06;;;;;;;;;;;;;;;24.92;36.82;101346.41;4134460;28;19922;-74
2023/05/22 09:43:10;;;;;;;;;;;;;;;24.93;36.73;101342.72;4134695;28;19925;-73
2023/05/22 09:45:12;;;;;;;;;;;;;;;24.95;36.78;101342.63;4134560;28;19922;-74
2023/05/22 09:47:14;;;;;;;;;;;;;;;24.95;36.87;101345.31;4134547;28;19967;-73
2023/05/22 09:49:16;;;;;;;;;;;;;;;24.95;36.83;101337.22;4133449;28;19922;-73
2023/05/22 09:51:25;;;;;;;;;;;;;;;24.96;36.93;101337.09;4134106;28;19921;-74
2023/05/22 09:53:27;;;;;;;;;;;;;;;24.98;37.07;101332.44;4134129;28;19922;-73
2023/05/22 09:55:30;;;;;;;;;;;;;;;24.98;36.62;101337.81;4133124;28;19921;-73
2023/05/22 09:57:38;;;;;;;;;;;;;;;25.01;36.69;101334.00;4134501;28;19926;-73
2023/05/22 09:59:41;;;;;;;;;;;;;;;25.00;36.96;101338.50;4133039;28;19977;-74
2023/05/22 10:01:46;;;;;;;;;;;;;;;25.02;36.83;101336.56;4134411;28;19960;-73
2023/05/22 10:03:51;;;;;;;;;;;;;;;25.03;36.88;101337.38;4134141;28;19926;-74
2023/05/22 10:05:54;;;;;;;;;;;;;;;25.02;37.00;101333.03;4133903;28;20331;-74
2023/05/22 10:08:01;;;;;;;;;;;;;;;25.04;37.24;101334.59;4134436;28;19921;-75
2023/05/22 10:10:10;;;;;;;;;;;;;;;25.07;37.05;101336.16;4132959;28;20028;-73
2023/05/22 10:12:15;;;;;;;;;;;;;;;25.08;37.17;101337.00;4134258;28;19976;-73
2023/05/22 10:14:16;;;;;;;;;;;;;;;25.10;37.00;101335.03;4134035;28;19921;-73
2023/05/22 10:16:19;;;;;;;;;;;;;;;25.09;36.90;101336.84;4133869;28;19929;-74
2023/05/22 10:18:20;;;;;;;;;;;;;;;25.10;37.34;101335.88;4133533;28;19967;-74
2023/05/22 10:20:23;;;;;;;;;;;;;;;25.12;37.31;101327.69;4131999;28;19921;-74
2023/05/22 10:22:26;;;;;;;;;;;;;;;25.12;37.02;101322.31;4133778;28;19922;-74
2023/05/22 10:24:28;;;;;;;;;;;;;;;25.13;37.14;101327.53;4133820;28;20324;-73
2023/05/22 10:26:30;;;;;;;;;;;;;;;25.13;37.36;101323.97;4133852;28;19921;-73
2023/05/22 10:28:37;;;;;;;;;;;;;;;25.11;37.27;101324.13;4133882;28;19992;-74